sensor_id;sensor_type;location;lat;lon;timestamp;P1;durP1;ratioP1;P2;durP2;ratioP2
29214;SDS011;16252;49.816;7.964;2023-08-12T00:00:21;3.42;;;2.42;;
29214;SDS011;16252;49.816;7.964;2023-08-12T00:02:47;3.92;;;2.88;;
29214;SDS011;16252;49.816;7.964;2023-08-12T00:05:12;3.35;;;2.42;;
29214;SDS011;16252;49.816;7.964;2023-08-12T00:07:38;2.97;;;2.30;;
29214;SDS011;16252;49.816;7.964;2023-08-12T00:10:08;4.18;;;2.63;;
29214;SDS011;16252;49.816;7.964;2023-08-12T00:12:34;3.13;;;2.50;;
29214;SDS011;16252;49.816;7.964;2023-08-12T00:15:00;2.55;;;2.08;;
29214;SDS011;16252;49.816;7.964;2023-08-12T00:17:26;3.88;;;2.58;;
29214;SDS011;16252;49.816;7.964;2023-08-12T00:19:51;3.22;;;2.47;;
29214;SDS011;16252;49.816;7.964;2023-08-12T00:22:17;3.05;;;2.40;;
29214;SDS011;16252;49.816;7.964;2023-08-12T00:24:42;2.90;;;2.33;;
29214;SDS011;16252;49.816;7.964;2023-08-12T00:27:08;2.33;;;2.13;;
29214;SDS011;16252;49.816;7.964;2023-08-12T00:29:34;2.95;;;2.20;;
29214;SDS011;16252;49.816;7.964;2023-08-12T00:31:59;3.05;;;2.53;;
29214;SDS011;16252;49.816;7.964;2023-08-12T00:34:25;2.83;;;2.25;;
29214;SDS011;16252;49.816;7.964;2023-08-12T00:36:50;4.15;;;2.45;;
29214;SDS011;16252;49.816;7.964;2023-08-12T00:39:16;2.60;;;1.77;;
29214;SDS011;16252;49.816;7.964;2023-08-12T00:41:41;2.65;;;2.10;;
29214;SDS011;16252;49.816;7.964;2023-08-12T00:44:06;2.67;;;2.15;;
29214;SDS011;16252;49.816;7.964;2023-08-12T00:46:32;2.55;;;2.33;;
29214;SDS011;16252;49.816;7.964;2023-08-12T00:48:58;2.70;;;2.20;;
29214;SDS011;16252;49.816;7.964;2023-08-12T00:51:24;2.22;;;2.03;;
29214;SDS011;16252;49.816;7.964;2023-08-12T00:53:49;2.78;;;2.40;;
29214;SDS011;16252;49.816;7.964;2023-08-12T00:56:15;2.97;;;2.42;;
29214;SDS011;16252;49.816;7.964;2023-08-12T00:58:42;4.13;;;2.17;;
29214;SDS011;16252;49.816;7.964;2023-08-12T01:01:08;3.00;;;1.83;;
29214;SDS011;16252;49.816;7.964;2023-08-12T01:03:33;4.35;;;2.78;;
29214;SDS011;16252;49.816;7.964;2023-08-12T01:05:59;3.20;;;2.38;;
29214;SDS011;16252;49.816;7.964;2023-08-12T01:08:30;3.28;;;2.70;;
29214;SDS011;16252;49.816;7.964;2023-08-12T01:10:59;3.35;;;2.70;;
29214;SDS011;16252;49.816;7.964;2023-08-12T01:14:04;3.42;;;2.58;;
29214;SDS011;16252;49.816;7.964;2023-08-12T01:16:35;2.70;;;2.35;;
29214;SDS011;16252;49.816;7.964;2023-08-12T01:19:06;3.42;;;2.60;;
29214;SDS011;16252;49.816;7.964;2023-08-12T01:21:35;3.42;;;2.60;;
29214;SDS011;16252;49.816;7.964;2023-08-12T01:24:06;3.20;;;2.67;;
29214;SDS011;16252;49.816;7.964;2023-08-12T01:26:31;3.15;;;2.47;;
29214;SDS011;16252;49.816;7.964;2023-08-12T01:28:56;3.78;;;3.10;;
29214;SDS011;16252;49.816;7.964;2023-08-12T01:31:23;3.30;;;2.58;;
29214;SDS011;16252;49.816;7.964;2023-08-12T01:34:12;3.30;;;2.30;;
29214;SDS011;16252;49.816;7.964;2023-08-12T01:36:41;3.05;;;2.33;;
29214;SDS011;16252;49.816;7.964;2023-08-12T01:39:11;2.63;;;2.25;;
29214;SDS011;16252;49.816;7.964;2023-08-12T01:41:37;2.97;;;2.20;;
29214;SDS011;16252;49.816;7.964;2023-08-12T01:44:03;3.15;;;2.25;;
29214;SDS011;16252;49.816;7.964;2023-08-12T01:46:28;2.92;;;2.47;;
29214;SDS011;16252;49.816;7.964;2023-08-12T01:51:21;3.85;;;2.70;;
29214;SDS011;16252;49.816;7.964;2023-08-12T01:53:47;3.10;;;2.40;;
29214;SDS011;16252;49.816;7.964;2023-08-12T01:56:12;3.22;;;2.60;;
29214;SDS011;16252;49.816;7.964;2023-08-12T01:58:37;3.15;;;2.47;;
29214;SDS011;16252;49.816;7.964;2023-08-12T02:01:03;3.40;;;2.75;;
29214;SDS011;16252;49.816;7.964;2023-08-12T02:03:28;3.47;;;2.70;;
29214;SDS011;16252;49.816;7.964;2023-08-12T02:05:53;3.47;;;2.67;;
29214;SDS011;16252;49.816;7.964;2023-08-12T02:08:18;3.08;;;2.70;;
29214;SDS011;16252;49.816;7.964;2023-08-12T02:10:44;3.30;;;2.97;;
29214;SDS011;16252;49.816;7.964;2023-08-12T02:13:09;4.97;;;3.28;;
29214;SDS011;16252;49.816;7.964;2023-08-12T02:15:34;4.10;;;2.67;;
29214;SDS011;16252;49.816;7.964;2023-08-12T02:18:00;4.45;;;2.80;;
29214;SDS011;16252;49.816;7.964;2023-08-12T02:20:25;5.18;;;3.50;;
29214;SDS011;16252;49.816;7.964;2023-08-12T02:22:50;5.88;;;4.05;;
29214;SDS011;16252;49.816;7.964;2023-08-12T02:25:15;8.60;;;5.05;;
29214;SDS011;16252;49.816;7.964;2023-08-12T02:27:41;4.97;;;3.60;;
29214;SDS011;16252;49.816;7.964;2023-08-12T02:30:06;5.18;;;3.55;;
29214;SDS011;16252;49.816;7.964;2023-08-12T02:32:32;4.13;;;3.00;;
29214;SDS011;16252;49.816;7.964;2023-08-12T02:34:57;4.93;;;3.15;;
29214;SDS011;16252;49.816;7.964;2023-08-12T02:37:22;4.88;;;3.38;;
29214;SDS011;16252;49.816;7.964;2023-08-12T02:39:48;4.40;;;3.03;;
29214;SDS011;16252;49.816;7.964;2023-08-12T02:42:13;4.00;;;2.90;;
29214;SDS011;16252;49.816;7.964;2023-08-12T02:44:38;4.75;;;3.45;;
29214;SDS011;16252;49.816;7.964;2023-08-12T02:47:04;4.13;;;2.88;;
29214;SDS011;16252;49.816;7.964;2023-08-12T02:49:29;3.67;;;2.63;;
29214;SDS011;16252;49.816;7.964;2023-08-12T02:51:54;4.25;;;3.05;;
29214;SDS011;16252;49.816;7.964;2023-08-12T02:54:19;5.57;;;3.17;;
29214;SDS011;16252;49.816;7.964;2023-08-12T02:56:45;5.63;;;3.40;;
29214;SDS011;16252;49.816;7.964;2023-08-12T02:59:10;5.05;;;3.47;;
29214;SDS011;16252;49.816;7.964;2023-08-12T03:01:35;4.28;;;3.00;;
29214;SDS011;16252;49.816;7.964;2023-08-12T03:04:01;4.07;;;3.15;;
29214;SDS011;16252;49.816;7.964;2023-08-12T03:06:26;5.88;;;4.22;;
29214;SDS011;16252;49.816;7.964;2023-08-12T03:08:51;5.55;;;3.40;;
29214;SDS011;16252;49.816;7.964;2023-08-12T03:11:16;4.55;;;3.33;;
29214;SDS011;16252;49.816;7.964;2023-08-12T03:13:43;5.63;;;3.15;;
29214;SDS011;16252;49.816;7.964;2023-08-12T03:16:12;5.03;;;3.10;;
29214;SDS011;16252;49.816;7.964;2023-08-12T03:18:38;4.30;;;3.20;;
29214;SDS011;16252;49.816;7.964;2023-08-12T03:21:07;4.13;;;3.40;;
29214;SDS011;16252;49.816;7.964;2023-08-12T03:23:34;4.93;;;3.38;;
29214;SDS011;16252;49.816;7.964;2023-08-12T03:26:02;4.65;;;3.22;;
29214;SDS011;16252;49.816;7.964;2023-08-12T03:28:28;5.18;;;3.33;;
29214;SDS011;16252;49.816;7.964;2023-08-12T03:30:53;4.18;;;3.15;;
29214;SDS011;16252;49.816;7.964;2023-08-12T03:33:19;4.30;;;3.58;;
29214;SDS011;16252;49.816;7.964;2023-08-12T03:35:48;5.38;;;3.22;;
29214;SDS011;16252;49.816;7.964;2023-08-12T03:38:14;4.50;;;3.42;;
29214;SDS011;16252;49.816;7.964;2023-08-12T03:40:40;4.97;;;3.40;;
29214;SDS011;16252;49.816;7.964;2023-08-12T03:43:05;3.70;;;3.00;;
29214;SDS011;16252;49.816;7.964;2023-08-12T03:45:31;4.93;;;4.00;;
29214;SDS011;16252;49.816;7.964;2023-08-12T03:47:56;4.85;;;3.78;;
29214;SDS011;16252;49.816;7.964;2023-08-12T03:50:21;4.03;;;3.45;;
29214;SDS011;16252;49.816;7.964;2023-08-12T03:52:47;4.70;;;3.45;;
29214;SDS011;16252;49.816;7.964;2023-08-12T03:55:12;4.38;;;3.25;;
29214;SDS011;16252;49.816;7.964;2023-08-12T03:57:37;5.53;;;3.22;;
29214;SDS011;16252;49.816;7.964;2023-08-12T04:00:03;5.93;;;3.10;;
29214;SDS011;16252;49.816;7.964;2023-08-12T04:02:29;3.45;;;2.97;;
29214;SDS011;16252;49.816;7.964;2023-08-12T04:04:54;3.72;;;3.10;;
29214;SDS011;16252;49.816;7.964;2023-08-12T04:07:20;4.25;;;3.15;;
29214;SDS011;16252;49.816;7.964;2023-08-12T04:09:45;5.18;;;3.40;;
29214;SDS011;16252;49.816;7.964;2023-08-12T04:12:10;4.43;;;3.13;;
29214;SDS011;16252;49.816;7.964;2023-08-12T04:14:35;4.75;;;3.17;;
29214;SDS011;16252;49.816;7.964;2023-08-12T04:17:01;4.47;;;3.40;;
29214;SDS011;16252;49.816;7.964;2023-08-12T04:19:26;3.92;;;3.22;;
29214;SDS011;16252;49.816;7.964;2023-08-12T04:21:51;4.03;;;3.10;;
29214;SDS011;16252;49.816;7.964;2023-08-12T04:24:17;4.68;;;3.33;;
29214;SDS011;16252;49.816;7.964;2023-08-12T04:26:42;3.75;;;3.15;;
29214;SDS011;16252;49.816;7.964;2023-08-12T04:29:07;4.50;;;3.53;;
29214;SDS011;16252;49.816;7.964;2023-08-12T04:31:32;3.85;;;2.75;;
29214;SDS011;16252;49.816;7.964;2023-08-12T04:33:58;3.80;;;2.92;;
29214;SDS011;16252;49.816;7.964;2023-08-12T04:36:23;4.28;;;3.53;;
29214;SDS011;16252;49.816;7.964;2023-08-12T04:38:49;4.18;;;2.95;;
29214;SDS011;16252;49.816;7.964;2023-08-12T04:41:14;4.63;;;3.10;;
29214;SDS011;16252;49.816;7.964;2023-08-12T04:43:40;4.00;;;3.00;;
29214;SDS011;16252;49.816;7.964;2023-08-12T04:46:06;3.72;;;2.78;;
29214;SDS011;16252;49.816;7.964;2023-08-12T04:48:31;5.22;;;3.08;;
29214;SDS011;16252;49.816;7.964;2023-08-12T04:50:56;4.40;;;3.00;;
29214;SDS011;16252;49.816;7.964;2023-08-12T04:53:25;4.85;;;3.50;;
29214;SDS011;16252;49.816;7.964;2023-08-12T04:55:50;6.18;;;3.85;;
29214;SDS011;16252;49.816;7.964;2023-08-12T04:58:16;4.07;;;3.30;;
29214;SDS011;16252;49.816;7.964;2023-08-12T05:00:42;5.25;;;3.83;;
29214;SDS011;16252;49.816;7.964;2023-08-12T05:03:07;4.95;;;3.45;;
29214;SDS011;16252;49.816;7.964;2023-08-12T05:05:32;5.43;;;3.47;;
29214;SDS011;16252;49.816;7.964;2023-08-12T05:07:57;3.95;;;3.10;;
29214;SDS011;16252;49.816;7.964;2023-08-12T05:10:23;4.05;;;3.22;;
29214;SDS011;16252;49.816;7.964;2023-08-12T05:12:48;5.15;;;3.05;;
29214;SDS011;16252;49.816;7.964;2023-08-12T05:15:15;3.53;;;2.95;;
29214;SDS011;16252;49.816;7.964;2023-08-12T05:17:40;3.50;;;2.90;;
29214;SDS011;16252;49.816;7.964;2023-08-12T05:20:06;3.10;;;2.70;;
29214;SDS011;16252;49.816;7.964;2023-08-12T05:22:31;3.10;;;2.67;;
29214;SDS011;16252;49.816;7.964;2023-08-12T05:24:57;4.53;;;2.75;;
29214;SDS011;16252;49.816;7.964;2023-08-12T05:27:22;2.80;;;2.40;;
29214;SDS011;16252;49.816;7.964;2023-08-12T05:29:47;3.40;;;2.92;;
29214;SDS011;16252;49.816;7.964;2023-08-12T05:32:12;2.70;;;2.50;;
29214;SDS011;16252;49.816;7.964;2023-08-12T05:34:38;3.03;;;2.70;;
29214;SDS011;16252;49.816;7.964;2023-08-12T05:37:03;3.33;;;2.50;;
29214;SDS011;16252;49.816;7.964;2023-08-12T05:39:28;2.83;;;2.53;;
29214;SDS011;16252;49.816;7.964;2023-08-12T05:41:53;3.60;;;2.72;;
29214;SDS011;16252;49.816;7.964;2023-08-12T05:44:19;4.10;;;3.22;;
29214;SDS011;16252;49.816;7.964;2023-08-12T05:46:44;4.68;;;2.97;;
29214;SDS011;16252;49.816;7.964;2023-08-12T05:49:09;3.13;;;2.80;;
29214;SDS011;16252;49.816;7.964;2023-08-12T05:51:35;4.10;;;2.90;;
29214;SDS011;16252;49.816;7.964;2023-08-12T05:54:00;4.05;;;3.25;;
29214;SDS011;16252;49.816;7.964;2023-08-12T05:56:25;4.00;;;2.97;;
29214;SDS011;16252;49.816;7.964;2023-08-12T05:58:51;3.13;;;2.55;;
29214;SDS011;16252;49.816;7.964;2023-08-12T06:01:16;3.50;;;2.67;;
29214;SDS011;16252;49.816;7.964;2023-08-12T06:03:42;4.43;;;2.95;;
29214;SDS011;16252;49.816;7.964;2023-08-12T06:06:07;3.53;;;2.60;;
29214;SDS011;16252;49.816;7.964;2023-08-12T06:08:32;3.40;;;2.50;;
29214;SDS011;16252;49.816;7.964;2023-08-12T06:10:58;3.45;;;2.95;;
29214;SDS011;16252;49.816;7.964;2023-08-12T06:13:23;3.05;;;2.55;;
29214;SDS011;16252;49.816;7.964;2023-08-12T06:15:48;4.80;;;2.75;;
29214;SDS011;16252;49.816;7.964;2023-08-12T06:18:13;4.80;;;2.80;;
29214;SDS011;16252;49.816;7.964;2023-08-12T06:20:39;2.55;;;2.35;;
29214;SDS011;16252;49.816;7.964;2023-08-12T06:23:04;3.15;;;2.40;;
29214;SDS011;16252;49.816;7.964;2023-08-12T06:25:29;3.80;;;2.83;;
29214;SDS011;16252;49.816;7.964;2023-08-12T06:27:54;2.72;;;2.50;;
29214;SDS011;16252;49.816;7.964;2023-08-12T06:30:20;4.00;;;2.80;;
29214;SDS011;16252;49.816;7.964;2023-08-12T06:32:45;3.22;;;2.67;;
29214;SDS011;16252;49.816;7.964;2023-08-12T06:35:10;3.42;;;2.90;;
29214;SDS011;16252;49.816;7.964;2023-08-12T06:37:36;3.63;;;2.50;;
29214;SDS011;16252;49.816;7.964;2023-08-12T06:40:01;4.38;;;2.65;;
29214;SDS011;16252;49.816;7.964;2023-08-12T06:42:26;4.75;;;3.17;;
29214;SDS011;16252;49.816;7.964;2023-08-12T06:44:56;4.13;;;3.40;;
29214;SDS011;16252;49.816;7.964;2023-08-12T06:47:23;3.88;;;3.20;;
29214;SDS011;16252;49.816;7.964;2023-08-12T06:49:48;4.15;;;3.40;;
29214;SDS011;16252;49.816;7.964;2023-08-12T06:52:13;4.13;;;3.40;;
29214;SDS011;16252;49.816;7.964;2023-08-12T06:54:39;4.78;;;2.85;;
29214;SDS011;16252;49.816;7.964;2023-08-12T06:57:04;5.70;;;3.45;;
29214;SDS011;16252;49.816;7.964;2023-08-12T06:59:29;4.57;;;3.00;;
29214;SDS011;16252;49.816;7.964;2023-08-12T07:01:55;3.55;;;3.13;;
29214;SDS011;16252;49.816;7.964;2023-08-12T07:04:20;4.38;;;2.97;;
29214;SDS011;16252;49.816;7.964;2023-08-12T07:06:45;3.97;;;3.00;;
29214;SDS011;16252;49.816;7.964;2023-08-12T07:09:11;3.10;;;2.80;;
29214;SDS011;16252;49.816;7.964;2023-08-12T07:11:36;3.30;;;3.00;;
29214;SDS011;16252;49.816;7.964;2023-08-12T07:14:01;5.18;;;2.97;;
29214;SDS011;16252;49.816;7.964;2023-08-12T07:16:26;2.55;;;2.35;;
29214;SDS011;16252;49.816;7.964;2023-08-12T07:18:52;5.35;;;2.90;;
29214;SDS011;16252;49.816;7.964;2023-08-12T07:21:17;2.80;;;2.50;;
29214;SDS011;16252;49.816;7.964;2023-08-12T07:23:42;3.10;;;2.55;;
29214;SDS011;16252;49.816;7.964;2023-08-12T07:26:07;2.85;;;2.55;;
29214;SDS011;16252;49.816;7.964;2023-08-12T07:28:33;3.45;;;2.65;;
29214;SDS011;16252;49.816;7.964;2023-08-12T07:31:00;3.50;;;2.78;;
29214;SDS011;16252;49.816;7.964;2023-08-12T07:33:26;4.35;;;3.30;;
29214;SDS011;16252;49.816;7.964;2023-08-12T07:35:52;3.35;;;2.55;;
29214;SDS011;16252;49.816;7.964;2023-08-12T07:38:17;3.50;;;2.85;;
29214;SDS011;16252;49.816;7.964;2023-08-12T07:40:42;2.95;;;2.45;;
29214;SDS011;16252;49.816;7.964;2023-08-12T07:43:08;3.50;;;2.97;;
29214;SDS011;16252;49.816;7.964;2023-08-12T07:45:33;2.72;;;2.38;;
29214;SDS011;16252;49.816;7.964;2023-08-12T07:47:58;4.50;;;2.80;;
29214;SDS011;16252;49.816;7.964;2023-08-12T07:50:24;3.35;;;2.70;;
29214;SDS011;16252;49.816;7.964;2023-08-12T07:52:49;3.63;;;3.10;;
29214;SDS011;16252;49.816;7.964;2023-08-12T07:57:43;3.80;;;2.83;;
29214;SDS011;16252;49.816;7.964;2023-08-12T08:00:09;3.15;;;2.85;;
29214;SDS011;16252;49.816;7.964;2023-08-12T08:02:35;3.47;;;2.80;;
29214;SDS011;16252;49.816;7.964;2023-08-12T08:05:00;3.25;;;2.95;;
29214;SDS011;16252;49.816;7.964;2023-08-12T08:07:25;3.08;;;2.75;;
29214;SDS011;16252;49.816;7.964;2023-08-12T08:09:51;3.55;;;2.55;;
29214;SDS011;16252;49.816;7.964;2023-08-12T08:12:16;3.03;;;2.63;;
29214;SDS011;16252;49.816;7.964;2023-08-12T08:14:41;2.90;;;2.65;;
29214;SDS011;16252;49.816;7.964;2023-08-12T08:17:07;2.50;;;2.20;;
29214;SDS011;16252;49.816;7.964;2023-08-12T08:19:32;4.47;;;3.08;;
29214;SDS011;16252;49.816;7.964;2023-08-12T08:21:58;3.13;;;2.58;;
29214;SDS011;16252;49.816;7.964;2023-08-12T08:24:23;4.28;;;2.90;;
29214;SDS011;16252;49.816;7.964;2023-08-12T08:26:48;4.43;;;2.78;;
29214;SDS011;16252;49.816;7.964;2023-08-12T08:29:14;2.58;;;2.15;;
29214;SDS011;16252;49.816;7.964;2023-08-12T08:31:39;3.00;;;2.47;;
29214;SDS011;16252;49.816;7.964;2023-08-12T08:34:04;3.15;;;2.70;;
29214;SDS011;16252;49.816;7.964;2023-08-12T08:36:30;3.13;;;2.42;;
29214;SDS011;16252;49.816;7.964;2023-08-12T08:38:56;3.60;;;2.28;;
29214;SDS011;16252;49.816;7.964;2023-08-12T08:41:21;2.58;;;2.38;;
29214;SDS011;16252;49.816;7.964;2023-08-12T08:43:47;2.72;;;2.47;;
29214;SDS011;16252;49.816;7.964;2023-08-12T08:46:16;2.63;;;2.25;;
29214;SDS011;16252;49.816;7.964;2023-08-12T08:48:42;3.25;;;2.30;;
29214;SDS011;16252;49.816;7.964;2023-08-12T08:51:08;2.50;;;2.05;;
29214;SDS011;16252;49.816;7.964;2023-08-12T08:53:38;4.35;;;2.47;;
29214;SDS011;16252;49.816;7.964;2023-08-12T08:56:04;2.47;;;2.17;;
29214;SDS011;16252;49.816;7.964;2023-08-12T08:58:30;2.45;;;2.03;;
29214;SDS011;16252;49.816;7.964;2023-08-12T09:00:56;3.45;;;2.53;;
29214;SDS011;16252;49.816;7.964;2023-08-12T09:03:21;3.13;;;2.22;;
29214;SDS011;16252;49.816;7.964;2023-08-12T09:05:47;2.22;;;2.00;;
29214;SDS011;16252;49.816;7.964;2023-08-12T09:08:12;2.13;;;1.90;;
29214;SDS011;16252;49.816;7.964;2023-08-12T09:10:39;2.20;;;2.00;;
29214;SDS011;16252;49.816;7.964;2023-08-12T09:13:07;2.53;;;2.20;;
29214;SDS011;16252;49.816;7.964;2023-08-12T09:15:33;2.95;;;2.10;;
29214;SDS011;16252;49.816;7.964;2023-08-12T09:17:59;1.95;;;1.77;;
29214;SDS011;16252;49.816;7.964;2023-08-12T09:20:24;3.08;;;2.20;;
29214;SDS011;16252;49.816;7.964;2023-08-12T09:22:59;2.13;;;1.90;;
29214;SDS011;16252;49.816;7.964;2023-08-12T09:25:26;3.05;;;2.03;;
29214;SDS011;16252;49.816;7.964;2023-08-12T09:27:53;3.47;;;2.22;;
29214;SDS011;16252;49.816;7.964;2023-08-12T09:30:20;2.70;;;2.17;;
29214;SDS011;16252;49.816;7.964;2023-08-12T09:32:57;2.63;;;1.90;;
29214;SDS011;16252;49.816;7.964;2023-08-12T09:35:35;2.85;;;2.22;;
29214;SDS011;16252;49.816;7.964;2023-08-12T09:38:05;1.92;;;1.75;;
29214;SDS011;16252;49.816;7.964;2023-08-12T09:40:33;3.42;;;2.10;;
29214;SDS011;16252;49.816;7.964;2023-08-12T09:43:00;2.47;;;1.88;;
29214;SDS011;16252;49.816;7.964;2023-08-12T09:45:25;2.33;;;1.75;;
29214;SDS011;16252;49.816;7.964;2023-08-12T09:47:51;3.72;;;2.08;;
29214;SDS011;16252;49.816;7.964;2023-08-12T09:50:17;3.22;;;2.20;;
29214;SDS011;16252;49.816;7.964;2023-08-12T09:52:45;3.72;;;2.10;;
29214;SDS011;16252;49.816;7.964;2023-08-12T09:55:11;2.55;;;1.88;;
29214;SDS011;16252;49.816;7.964;2023-08-12T09:57:42;3.28;;;2.40;;
29214;SDS011;16252;49.816;7.964;2023-08-12T10:00:09;2.42;;;1.92;;
29214;SDS011;16252;49.816;7.964;2023-08-12T10:02:42;2.50;;;2.10;;
29214;SDS011;16252;49.816;7.964;2023-08-12T10:05:09;2.60;;;2.00;;
29214;SDS011;16252;49.816;7.964;2023-08-12T10:07:37;2.78;;;1.80;;
29214;SDS011;16252;49.816;7.964;2023-08-12T10:10:03;2.65;;;1.70;;
29214;SDS011;16252;49.816;7.964;2023-08-12T10:12:30;2.83;;;1.95;;
29214;SDS011;16252;49.816;7.964;2023-08-12T10:14:56;3.17;;;1.80;;
29214;SDS011;16252;49.816;7.964;2023-08-12T10:17:23;2.13;;;1.70;;
29214;SDS011;16252;49.816;7.964;2023-08-12T10:19:50;2.60;;;1.60;;
29214;SDS011;16252;49.816;7.964;2023-08-12T10:22:20;2.30;;;1.92;;
29214;SDS011;16252;49.816;7.964;2023-08-12T10:24:46;3.70;;;2.20;;
29214;SDS011;16252;49.816;7.964;2023-08-12T10:27:12;2.20;;;1.77;;
29214;SDS011;16252;49.816;7.964;2023-08-12T10:29:38;2.55;;;1.60;;
29214;SDS011;16252;49.816;7.964;2023-08-12T10:32:04;3.28;;;2.20;;
29214;SDS011;16252;49.816;7.964;2023-08-12T10:34:29;2.05;;;1.80;;
29214;SDS011;16252;49.816;7.964;2023-08-12T10:36:55;2.65;;;1.95;;
29214;SDS011;16252;49.816;7.964;2023-08-12T10:39:25;4.43;;;2.00;;
29214;SDS011;16252;49.816;7.964;2023-08-12T10:41:51;3.28;;;2.20;;
29214;SDS011;16252;49.816;7.964;2023-08-12T10:44:19;3.03;;;2.20;;
29214;SDS011;16252;49.816;7.964;2023-08-12T10:46:49;1.60;;;1.40;;
29214;SDS011;16252;49.816;7.964;2023-08-12T10:51:43;2.25;;;1.60;;
29214;SDS011;16252;49.816;7.964;2023-08-12T10:54:10;2.80;;;2.20;;
29214;SDS011;16252;49.816;7.964;2023-08-12T11:02:18;17.05;;;10.32;;
29214;SDS011;16252;49.816;7.964;2023-08-12T11:05:01;10.70;;;6.13;;
29214;SDS011;16252;49.816;7.964;2023-08-12T11:07:38;7.10;;;3.90;;
29214;SDS011;16252;49.816;7.964;2023-08-12T11:10:24;4.43;;;2.88;;
29214;SDS011;16252;49.816;7.964;2023-08-12T11:15:15;1.83;;;1.67;;
29214;SDS011;16252;49.816;7.964;2023-08-12T11:17:41;2.50;;;1.65;;
29214;SDS011;16252;49.816;7.964;2023-08-12T11:20:10;3.38;;;1.85;;
29214;SDS011;16252;49.816;7.964;2023-08-12T11:22:37;2.17;;;1.75;;
29214;SDS011;16252;49.816;7.964;2023-08-12T11:25:07;2.10;;;1.67;;
29214;SDS011;16252;49.816;7.964;2023-08-12T11:27:37;2.50;;;1.55;;
29214;SDS011;16252;49.816;7.964;2023-08-12T11:30:02;2.50;;;1.80;;
29214;SDS011;16252;49.816;7.964;2023-08-12T11:32:28;3.22;;;1.48;;
29214;SDS011;16252;49.816;7.964;2023-08-12T11:34:54;2.80;;;1.58;;
29214;SDS011;16252;49.816;7.964;2023-08-12T11:37:19;2.53;;;1.60;;
29214;SDS011;16252;49.816;7.964;2023-08-12T11:39:45;1.85;;;1.60;;
29214;SDS011;16252;49.816;7.964;2023-08-12T11:42:10;2.13;;;1.65;;
29214;SDS011;16252;49.816;7.964;2023-08-12T11:44:35;2.35;;;2.13;;
29214;SDS011;16252;49.816;7.964;2023-08-12T11:47:00;2.13;;;1.60;;
29214;SDS011;16252;49.816;7.964;2023-08-12T11:49:26;1.52;;;1.38;;
29214;SDS011;16252;49.816;7.964;2023-08-12T11:51:51;4.40;;;1.67;;
29214;SDS011;16252;49.816;7.964;2023-08-12T11:54:16;2.83;;;1.70;;
29214;SDS011;16252;49.816;7.964;2023-08-12T11:56:42;1.45;;;1.33;;
29214;SDS011;16252;49.816;7.964;2023-08-12T11:59:08;2.15;;;1.52;;
29214;SDS011;16252;49.816;7.964;2023-08-12T12:01:33;2.55;;;1.60;;
29214;SDS011;16252;49.816;7.964;2023-08-12T12:03:59;2.13;;;1.70;;
29214;SDS011;16252;49.816;7.964;2023-08-12T12:06:37;3.15;;;2.10;;
29214;SDS011;16252;49.816;7.964;2023-08-12T12:09:07;1.60;;;1.50;;
29214;SDS011;16252;49.816;7.964;2023-08-12T12:11:37;2.50;;;1.70;;
29214;SDS011;16252;49.816;7.964;2023-08-12T12:14:03;2.17;;;1.80;;
29214;SDS011;16252;49.816;7.964;2023-08-12T12:16:39;2.15;;;1.50;;
29214;SDS011;16252;49.816;7.964;2023-08-12T12:19:24;2.28;;;1.63;;
29214;SDS011;16252;49.816;7.964;2023-08-12T12:21:50;2.15;;;1.40;;
29214;SDS011;16252;49.816;7.964;2023-08-12T12:24:16;1.65;;;1.40;;
29214;SDS011;16252;49.816;7.964;2023-08-12T12:26:43;2.22;;;1.67;;
29214;SDS011;16252;49.816;7.964;2023-08-12T12:29:09;3.72;;;1.98;;
29214;SDS011;16252;49.816;7.964;2023-08-12T12:31:36;1.85;;;1.67;;
29214;SDS011;16252;49.816;7.964;2023-08-12T12:34:02;2.50;;;1.90;;
29214;SDS011;16252;49.816;7.964;2023-08-12T12:36:35;2.13;;;1.75;;
29214;SDS011;16252;49.816;7.964;2023-08-12T12:39:03;2.83;;;2.10;;
29214;SDS011;16252;49.816;7.964;2023-08-12T12:41:29;2.67;;;2.13;;
29214;SDS011;16252;49.816;7.964;2023-08-12T12:43:55;2.17;;;1.98;;
29214;SDS011;16252;49.816;7.964;2023-08-12T12:46:20;2.35;;;1.95;;
29214;SDS011;16252;49.816;7.964;2023-08-12T12:48:46;2.55;;;2.35;;
29214;SDS011;16252;49.816;7.964;2023-08-12T12:51:14;3.45;;;2.70;;
29214;SDS011;16252;49.816;7.964;2023-08-12T12:53:40;2.20;;;1.98;;
29214;SDS011;16252;49.816;7.964;2023-08-12T12:56:05;2.40;;;2.20;;
29214;SDS011;16252;49.816;7.964;2023-08-12T12:58:31;2.53;;;2.33;;
29214;SDS011;16252;49.816;7.964;2023-08-12T13:00:58;3.45;;;2.45;;
29214;SDS011;16252;49.816;7.964;2023-08-12T13:03:23;2.80;;;2.20;;
29214;SDS011;16252;49.816;7.964;2023-08-12T13:05:49;3.33;;;2.30;;
29214;SDS011;16252;49.816;7.964;2023-08-12T13:08:15;3.00;;;2.08;;
29214;SDS011;16252;49.816;7.964;2023-08-12T13:10:40;2.95;;;2.28;;
29214;SDS011;16252;49.816;7.964;2023-08-12T13:13:05;4.05;;;2.60;;
29214;SDS011;16252;49.816;7.964;2023-08-12T13:15:31;2.88;;;2.25;;
29214;SDS011;16252;49.816;7.964;2023-08-12T13:17:56;3.50;;;2.10;;
29214;SDS011;16252;49.816;7.964;2023-08-12T13:20:22;2.95;;;2.33;;
29214;SDS011;16252;49.816;7.964;2023-08-12T13:22:47;4.10;;;2.53;;
29214;SDS011;16252;49.816;7.964;2023-08-12T13:25:12;2.97;;;2.35;;
29214;SDS011;16252;49.816;7.964;2023-08-12T13:27:38;2.67;;;2.45;;
29214;SDS011;16252;49.816;7.964;2023-08-12T13:30:03;2.60;;;2.38;;
29214;SDS011;16252;49.816;7.964;2023-08-12T13:32:29;3.10;;;2.38;;
29214;SDS011;16252;49.816;7.964;2023-08-12T13:34:55;2.88;;;2.60;;
29214;SDS011;16252;49.816;7.964;2023-08-12T13:37:20;3.22;;;2.60;;
29214;SDS011;16252;49.816;7.964;2023-08-12T13:39:45;3.25;;;2.38;;
29214;SDS011;16252;49.816;7.964;2023-08-12T13:42:10;3.08;;;2.63;;
29214;SDS011;16252;49.816;7.964;2023-08-12T13:44:36;2.95;;;2.45;;
29214;SDS011;16252;49.816;7.964;2023-08-12T13:47:01;2.60;;;2.40;;
29214;SDS011;16252;49.816;7.964;2023-08-12T13:49:26;2.58;;;2.38;;
29214;SDS011;16252;49.816;7.964;2023-08-12T13:51:52;2.88;;;2.50;;
29214;SDS011;16252;49.816;7.964;2023-08-12T13:54:17;3.03;;;2.78;;
29214;SDS011;16252;49.816;7.964;2023-08-12T13:56:42;3.03;;;2.20;;
29214;SDS011;16252;49.816;7.964;2023-08-12T13:59:07;2.85;;;2.50;;
29214;SDS011;16252;49.816;7.964;2023-08-12T14:01:33;2.53;;;2.13;;
29214;SDS011;16252;49.816;7.964;2023-08-12T14:03:58;3.70;;;2.28;;
29214;SDS011;16252;49.816;7.964;2023-08-12T14:06:23;1.88;;;1.73;;
29214;SDS011;16252;49.816;7.964;2023-08-12T14:08:49;2.28;;;2.00;;
29214;SDS011;16252;49.816;7.964;2023-08-12T14:11:14;2.00;;;1.70;;
29214;SDS011;16252;49.816;7.964;2023-08-12T14:13:39;2.00;;;1.80;;
29214;SDS011;16252;49.816;7.964;2023-08-12T14:16:04;2.22;;;1.83;;
29214;SDS011;16252;49.816;7.964;2023-08-12T14:18:30;2.30;;;1.30;;
29214;SDS011;16252;49.816;7.964;2023-08-12T14:20:55;2.58;;;1.65;;
29214;SDS011;16252;49.816;7.964;2023-08-12T14:23:21;1.60;;;1.30;;
29214;SDS011;16252;49.816;7.964;2023-08-12T14:25:46;2.03;;;1.30;;
29214;SDS011;16252;49.816;7.964;2023-08-12T14:28:11;2.00;;;1.33;;
29214;SDS011;16252;49.816;7.964;2023-08-12T14:30:37;2.25;;;1.45;;
29214;SDS011;16252;49.816;7.964;2023-08-12T14:33:02;1.60;;;1.10;;
29214;SDS011;16252;49.816;7.964;2023-08-12T14:35:27;2.03;;;1.42;;
29214;SDS011;16252;49.816;7.964;2023-08-12T14:37:53;2.65;;;1.65;;
29214;SDS011;16252;49.816;7.964;2023-08-12T14:40:18;2.13;;;1.40;;
29214;SDS011;16252;49.816;7.964;2023-08-12T14:42:43;1.40;;;1.30;;
29214;SDS011;16252;49.816;7.964;2023-08-12T14:45:09;1.77;;;1.30;;
29214;SDS011;16252;49.816;7.964;2023-08-12T14:47:34;2.95;;;1.48;;
29214;SDS011;16252;49.816;7.964;2023-08-12T14:50:00;1.65;;;1.27;;
29214;SDS011;16252;49.816;7.964;2023-08-12T14:52:25;1.73;;;1.45;;
29214;SDS011;16252;49.816;7.964;2023-08-12T14:54:51;1.98;;;1.25;;
29214;SDS011;16252;49.816;7.964;2023-08-12T14:57:16;1.65;;;1.33;;